Time;durP1;ratioP1;P1;durP2;ratioP2;P2;SDS_P1;SDS_P2;PMS_P1;PMS_P2;Temp;Humidity;BMP_temperature;BMP_pressure;BME280_temperature;BME280_humidity;BME280_pressure;Samples;Min_cycle;Max_cycle;Signal;HPM_P1;HPM_P2
2023/06/06 01:27:35;;;;;;;;;9.25;9.25;;;;;18.05;46.68;101448.09;6353167;22;1519811;-92
2023/06/06 01:30:04;;;;;;;;;11.00;10.25;;;;;18.03;46.89;101446.41;6369700;22;46993;-93
2023/06/06 01:32:47;;;;;;;;;9.00;7.75;;;;;18.22;46.47;101478.78;6397298;22;45829;-92
2023/06/06 01:35:22;;;;;;;;;11.25;7.75;;;;;18.17;46.64;101484.31;6369630;22;45611;-92
2023/06/06 01:37:59;;;;;;;;;10.50;9.00;;;;;17.97;46.96;101462.53;6371492;22;45225;-91
2023/06/06 01:40:30;;;;;;;;;10.67;9.00;;;;;17.84;46.87;101451.84;6395795;22;46952;-91
2023/06/06 01:42:56;;;;;;;;;10.00;8.75;;;;;17.85;47.30;101450.06;6395864;22;45412;-93
2023/06/06 01:45:27;;;;;;;;;12.25;10.50;;;;;17.78;47.01;101462.72;6368421;22;45511;-92
2023/06/06 01:47:53;;;;;;;;;11.33;10.33;;;;;17.73;47.52;101457.69;6369359;22;45154;-92
2023/06/06 01:50:18;;;;;;;;;10.50;10.25;;;;;17.68;47.33;101451.00;6396511;22;46888;-91
2023/06/06 01:52:44;;;;;;;;;9.75;9.25;;;;;17.65;47.60;101456.41;6397076;22;45685;-91
2023/06/06 01:55:10;;;;;;;;;10.00;10.00;;;;;17.53;47.33;101434.28;6370276;22;45359;-92
2023/06/06 01:57:35;;;;;;;;;14.25;11.00;;;;;17.56;47.50;101453.38;6370628;22;45602;-93
2023/06/06 02:00:04;;;;;;;;;11.25;11.00;;;;;17.48;47.83;101432.75;6369482;22;46831;-92
2023/06/06 02:02:29;;;;;;;;;14.00;10.75;;;;;17.63;47.84;101467.88;6396564;22;45470;-91
2023/06/06 02:04:55;;;;;;;;;14.50;9.00;;;;;17.40;47.88;101441.97;6369919;22;45442;-92
2023/06/06 02:07:20;;;;;;;;;12.00;11.25;;;;;17.41;47.59;101447.13;6370229;22;45265;-92
2023/06/06 02:09:46;;;;;;;;;10.50;9.50;;;;;17.50;47.65;101467.69;6370305;22;47983;-92
2023/06/06 02:12:11;;;;;;;;;11.00;10.50;;;;;17.36;47.80;101439.50;6369621;22;45253;-91
2023/06/06 02:14:37;;;;;;;;;12.75;11.75;;;;;17.33;47.90;101439.69;6397056;22;45178;-93
2023/06/06 02:17:03;;;;;;;;;18.25;12.00;;;;;17.47;47.82;101470.50;6370187;22;45088;-92
2023/06/06 02:19:31;;;;;;;;;13.25;11.50;;;;;17.33;48.02;101441.44;6369688;22;47409;-93
2023/06/06 02:21:57;;;;;;;;;9.50;7.75;;;;;17.31;48.05;101451.22;6397078;22;45511;-91
2023/06/06 02:24:24;;;;;;;;;10.25;10.25;;;;;17.18;48.39;101443.94;6369561;22;45383;-93
2023/06/06 02:26:52;;;;;;;;;12.75;11.50;;;;;17.13;48.66;101438.06;6369217;22;45505;-92
2023/06/06 02:29:18;;;;;;;;;15.25;13.75;;;;;17.21;48.29;101456.94;6396020;22;47268;-92
2023/06/06 02:31:43;;;;;;;;;14.75;11.50;;;;;17.27;48.21;101473.34;6395875;22;45327;-92
2023/06/06 02:34:08;;;;;;;;;9.50;8.50;;;;;17.13;48.55;101468.81;6369868;22;45352;-92
2023/06/06 02:36:34;;;;;;;;;11.00;11.00;;;;;17.04;48.94;101460.44;6370482;22;45331;-92
2023/06/06 02:39:00;;;;;;;;;12.75;10.75;;;;;16.92;48.73;101455.81;6369267;22;48104;-93
2023/06/06 02:41:26;;;;;;;;;13.25;10.75;;;;;16.94;48.87;101461.84;6369382;22;45943;-94
2023/06/06 02:43:51;;;;;;;;;14.50;10.25;;;;;16.90;49.08;101465.56;6369938;22;45297;-91
2023/06/06 02:46:17;;;;;;;;;11.50;11.25;;;;;16.95;48.63;101471.44;6368823;22;45256;-91
2023/06/06 02:48:48;;;;;;;;;14.25;12.50;;;;;16.98;48.85;101480.94;6396088;22;46924;-92
2023/06/06 02:51:17;;;;;;;;;18.75;13.50;;;;;16.76;49.41;101447.88;6396524;22;45481;-91
2023/06/06 02:53:43;;;;;;;;;13.50;12.00;;;;;16.74;49.30;101447.94;6368929;22;45427;-91
2023/06/06 02:56:10;;;;;;;;;11.00;10.75;;;;;16.83;49.17;101465.88;6369862;22;45345;-92
2023/06/06 02:58:36;;;;;;;;;12.50;11.75;;;;;16.69;49.48;101445.56;6395804;22;48174;-94
2023/06/06 03:01:02;;;;;;;;;10.50;10.50;;;;;16.83;49.25;101462.38;6394526;22;45199;-92
2023/06/06 03:03:28;;;;;;;;;16.00;12.75;;;;;16.82;49.49;101471.19;6368220;22;45325;-92
2023/06/06 03:05:54;;;;;;;;;13.50;13.25;;;;;16.69;49.45;101452.56;6394323;22;45592;-92
2023/06/06 03:08:20;;;;;;;;;16.25;11.00;;;;;16.50;49.26;101424.59;6368992;22;47338;-92
2023/06/06 03:10:47;;;;;;;;;11.50;11.50;;;;;16.65;49.56;101464.16;6394275;22;45406;-93
2023/06/06 03:13:13;;;;;;;;;17.75;12.50;;;;;16.52;49.65;101448.19;6369326;22;45435;-92
2023/06/06 03:15:40;;;;;;;;;13.75;11.50;;;;;16.51;49.95;101452.56;6369486;22;45546;-93
2023/06/06 03:18:09;;;;;;;;;13.75;12.75;;;;;16.52;49.82;101459.53;6395058;22;48197;-91
2023/06/06 03:20:41;;;;;;;;;15.00;12.25;;;;;16.33;49.66;101429.84;6394619;22;45263;-93
2023/06/06 03:23:08;;;;;;;;;13.75;11.00;;;;;16.49;50.12;101462.31;6395015;22;45415;-93
2023/06/06 03:25:33;;;;;;;;;15.50;14.00;;;;;16.37;50.38;101449.75;6395175;22;45344;-91
2023/06/06 03:28:00;;;;;;;;;16.75;13.75;;;;;16.50;50.06;101471.03;6366765;22;47269;-92
2023/06/06 03:30:25;;;;;;;;;14.25;12.50;;;;;16.25;50.32;101431.06;6367397;22;45414;-92
2023/06/06 03:32:51;;;;;;;;;11.50;11.50;;;;;16.24;49.98;101437.25;6395455;22;45316;-91
2023/06/06 03:35:18;;;;;;;;;12.25;10.00;;;;;16.25;50.12;101441.56;6394389;22;45371;-92
2023/06/06 03:37:43;;;;;;;;;15.50;11.75;;;;;16.20;50.52;101432.22;6395142;22;46891;-91
2023/06/06 03:40:09;;;;;;;;;17.25;13.50;;;;;16.28;50.60;101459.81;6368094;22;45228;-91
2023/06/06 03:42:34;;;;;;;;;13.00;11.25;;;;;16.25;50.66;101464.38;6370157;22;45213;-91
2023/06/06 03:45:00;;;;;;;;;17.25;15.25;;;;;16.06;50.43;101436.34;6370477;22;45210;-92
2023/06/06 03:47:25;;;;;;;;;15.00;14.75;;;;;16.15;50.76;101459.53;6367792;22;48031;-92
2023/06/06 03:49:51;;;;;;;;;17.00;13.00;;;;;15.99;50.44;101427.06;6369590;22;45236;-92
2023/06/06 03:52:16;;;;;;;;;16.00;14.25;;;;;16.00;50.64;101434.03;6368445;22;45429;-93
2023/06/06 03:54:42;;;;;;;;;16.25;15.00;;;;;16.05;50.75;101452.19;6394898;22;45856;-93
2023/06/06 03:57:11;;;;;;;;;14.50;12.25;;;;;16.14;50.95;101465.72;6368503;22;48579;-94
2023/06/06 03:59:36;;;;;;;;;18.75;15.00;;;;;16.14;51.04;101485.88;6393285;22;45616;-92
2023/06/06 04:02:03;;;;;;;;;15.00;12.50;;;;;16.10;51.11;101476.47;6368348;22;44737;-93
2023/06/06 04:04:30;;;;;;;;;17.25;16.00;;;;;15.92;51.27;101457.97;6395524;22;45543;-93
2023/06/06 04:06:58;;;;;;;;;17.50;15.50;;;;;15.80;51.15;101443.69;6396449;22;47510;-93
2023/06/06 04:09:24;;;;;;;;;19.75;16.75;;;;;15.81;51.32;101444.50;6370845;22;45406;-92
2023/06/06 04:11:50;;;;;;;;;17.75;15.00;;;;;15.89;51.19;101458.13;6371096;22;45308;-92
2023/06/06 04:14:15;;;;;;;;;16.50;15.75;;;;;16.02;51.29;101476.81;6397606;22;45255;-93
2023/06/06 04:16:40;;;;;;;;;16.50;15.50;;;;;15.93;51.73;101461.50;6371855;22;45338;-93
2023/06/06 04:19:06;;;;;;;;;16.75;13.00;;;;;15.88;51.66;101459.91;6397270;22;45469;-92
2023/06/06 04:21:32;;;;;;;;;18.25;15.75;;;;;15.89;51.67;101458.97;6371242;22;45248;-93
2023/06/06 04:23:58;;;;;;;;;17.00;16.00;;;;;15.97;51.93;101474.38;6371224;22;45264;-92
2023/06/06 04:26:25;;;;;;;;;20.00;16.50;;;;;15.74;51.66;101442.19;6370496;22;45549;-93
2023/06/06 04:28:53;;;;;;;;;21.25;16.00;;;;;15.94;51.47;101474.56;6396690;22;45293;-92
2023/06/06 04:31:23;;;;;;;;;22.75;17.25;;;;;15.78;51.55;101445.50;6370873;22;45202;-92
2023/06/06 04:33:53;;;;;;;;;18.75;16.25;;;;;15.88;51.75;101459.06;6371053;22;45264;-92
2023/06/06 04:36:23;;;;;;;;;20.75;16.75;;;;;15.84;51.79;101452.25;6397290;22;47885;-93
2023/06/06 04:38:49;;;;;;;;;14.50;12.00;;;;;15.77;51.44;101443.81;6370515;22;45269;-92
2023/06/06 04:41:16;;;;;;;;;16.75;13.25;;;;;15.74;51.61;101433.47;6397322;22;45229;-93
2023/06/06 04:43:42;;;;;;;;;22.75;18.50;;;;;15.80;52.00;101442.81;6397534;22;45603;-91
2023/06/06 04:46:08;;;;;;;;;19.00;16.00;;;;;15.94;51.71;101469.31;6371255;22;45339;-94
2023/06/06 04:48:33;;;;;;;;;15.00;15.00;;;;;15.85;52.25;101451.31;6369478;22;45340;-92
2023/06/06 04:50:59;;;;;;;;;16.75;15.25;;;;;15.90;52.15;101468.56;6371435;22;44789;-92
2023/06/06 04:53:25;;;;;;;;;21.75;17.75;;;;;15.82;52.38;101452.31;6370231;22;45353;-90
2023/06/06 04:55:55;;;;;;;;;22.25;18.50;;;;;15.86;52.19;101460.88;6370584;22;47971;-93
2023/06/06 04:58:21;;;;;;;;;23.25;17.00;;;;;15.80;51.96;101445.44;6369147;22;45199;-93
2023/06/06 05:00:48;;;;;;;;;19.50;17.00;;;;;15.90;52.29;101454.59;6396286;22;45268;-92
2023/06/06 05:03:19;;;;;;;;;23.00;17.00;;;;;15.92;51.60;101462.38;6370179;22;45345;-92
2023/06/06 05:05:48;;;;;;;;;19.25;18.00;;;;;15.96;51.49;101458.75;6370078;22;47050;-93
2023/06/06 05:08:13;;;;;;;;;19.25;18.25;;;;;15.97;51.64;101458.66;6370438;22;45332;-93
2023/06/06 05:10:42;;;;;;;;;19.50;17.00;;;;;16.01;52.16;101456.72;6369938;22;45770;-90
2023/06/06 05:13:08;;;;;;;;;16.25;15.50;;;;;16.17;52.03;101477.84;6397355;22;45515;-91
2023/06/06 05:15:33;;;;;;;;;19.25;16.50;;;;;16.20;52.31;101488.19;6369604;22;47026;-92
2023/06/06 05:17:58;;;;;;;;;17.00;16.00;;;;;16.11;52.28;101467.66;6369888;22;45225;-93
2023/06/06 05:20:24;;;;;;;;;25.00;19.75;;;;;16.02;51.89;101446.16;6369918;22;45188;-92
2023/06/06 05:22:50;;;;;;;;;22.25;19.50;;;;;16.16;51.99;101473.53;6370367;22;45675;-91
2023/06/06 05:25:16;;;;;;;;;27.00;21.25;;;;;16.07;51.91;101437.22;6370342;22;48096;-93
2023/06/06 05:27:41;;;;;;;;;18.75;17.25;;;;;16.24;51.83;101460.88;6369281;22;45488;-91
2023/06/06 05:30:07;;;;;;;;;21.00;19.00;;;;;16.19;51.90;101451.53;6370026;22;45213;-93
2023/06/06 05:32:32;;;;;;;;;24.00;21.50;;;;;16.26;52.15;101461.63;6370133;22;45411;-92
2023/06/06 05:35:01;;;;;;;;;20.50;18.25;;;;;16.30;51.70;101462.38;6369304;22;47824;-93
2023/06/06 05:37:28;;;;;;;;;24.00;19.75;;;;;16.35;52.07;101464.75;6369958;22;45293;-92
2023/06/06 05:39:53;;;;;;;;;19.50;16.75;;;;;16.36;51.92;101471.72;6370250;22;45340;-93
2023/06/06 05:42:19;;;;;;;;;19.00;17.25;;;;;16.41;51.59;101469.72;6370073;22;45403;-94
2023/06/06 05:44:44;;;;;;;;;21.00;17.50;;;;;16.47;51.66;101481.72;6370183;22;47180;-92
2023/06/06 05:47:12;;;;;;;;;21.25;20.50;;;;;16.40;52.00;101466.22;6369479;22;45712;-92
2023/06/06 05:49:37;;;;;;;;;27.00;21.75;;;;;16.42;51.51;101456.50;6370712;22;45329;-92
2023/06/06 05:52:04;;;;;;;;;24.25;20.00;;;;;16.42;51.65;101455.66;6370398;22;45387;-91
2023/06/06 05:54:29;;;;;;;;;26.00;23.00;;;;;16.55;51.67;101471.66;6370164;22;47867;-92
2023/06/06 05:56:56;;;;;;;;;23.50;22.00;;;;;16.74;51.67;101494.38;6369271;22;45210;-92
2023/06/06 05:59:21;;;;;;;;;27.75;24.50;;;;;16.59;52.05;101470.59;6370355;22;44739;-92
2023/06/06 06:01:49;;;;;;;;;22.75;21.50;;;;;16.77;51.44;101495.09;6369907;22;45281;-92
2023/06/06 06:04:16;;;;;;;;;29.50;25.50;;;;;16.65;51.71;101472.03;6370070;22;47273;-92
2023/06/06 06:06:46;;;;;;;;;24.00;22.75;;;;;16.77;51.87;101499.50;6369839;22;45517;-92
2023/06/06 06:09:11;;;;;;;;;29.00;25.00;;;;;16.59;51.90;101453.94;6370200;22;45206;-91
2023/06/06 06:11:37;;;;;;;;;33.50;27.75;;;;;16.67;51.69;101472.84;6370274;22;45258;-92
2023/06/06 06:14:02;;;;;;;;;24.00;22.00;;;;;16.65;52.68;101465.00;6369505;22;47013;-91
2023/06/06 06:16:28;;;;;;;;;28.50;25.00;;;;;16.68;52.06;101467.47;6369703;22;45164;-93
2023/06/06 06:18:53;;;;;;;;;26.50;23.50;;;;;16.84;52.21;101490.34;6370242;22;45544;-93
2023/06/06 06:21:22;;;;;;;;;22.25;20.25;;;;;16.93;51.69;101500.41;6369890;22;45540;-92
2023/06/06 06:23:51;;;;;;;;;27.75;24.25;;;;;17.01;51.53;101499.16;6369933;22;48231;-91
2023/06/06 06:26:17;;;;;;;;;26.75;24.00;;;;;17.00;51.83;101484.31;6369410;22;45799;-93
2023/06/06 06:28:42;;;;;;;;;32.75;27.50;;;;;16.95;51.88;101474.88;6368296;22;45226;-93
2023/06/06 06:31:08;;;;;;;;;27.25;24.00;;;;;16.94;51.74;101467.09;6369410;22;45314;-92
2023/06/06 06:33:34;;;;;;;;;30.50;26.75;;;;;17.20;51.66;101499.97;6368510;22;47515;-93
2023/06/06 06:36:00;;;;;;;;;26.25;25.50;;;;;17.26;51.55;101504.03;6370000;22;45680;-93
2023/06/06 06:38:25;;;;;;;;;26.75;25.50;;;;;17.29;51.95;101501.25;6369887;22;45256;-93
2023/06/06 06:40:51;;;;;;;;;34.00;29.00;;;;;17.27;51.75;101489.97;6369341;22;45697;-93
2023/06/06 06:43:16;;;;;;;;;28.25;27.25;;;;;17.28;51.50;101489.06;6368696;22;46902;-92
2023/06/06 06:45:42;;;;;;;;;28.25;26.00;;;;;17.28;51.61;101483.78;6369341;22;46020;-93
2023/06/06 06:48:07;;;;;;;;;24.25;24.25;;;;;17.22;51.65;101473.59;6368123;22;45221;-93
2023/06/06 06:50:33;;;;;;;;;30.25;25.25;;;;;17.42;51.17;101492.72;6369287;22;45434;-93
2023/06/06 06:52:58;;;;;;;;;31.00;26.25;;;;;17.35;51.64;101477.25;6368457;22;46848;-93
2023/06/06 06:55:25;;;;;;;;;28.75;27.00;;;;;17.43;51.27;101478.63;6368296;22;45708;-93
2023/06/06 06:57:52;;;;;;;;;28.00;26.25;;;;;17.54;51.14;101484.16;6369677;22;45543;-91
2023/06/06 07:00:22;;;;;;;;;28.25;26.50;;;;;17.61;51.50;101487.31;6369408;22;45948;-91
2023/06/06 07:02:47;;;;;;;;;28.50;28.00;;;;;17.68;51.65;101488.69;6368963;22;47632;-90
2023/06/06 07:05:17;;;;;;;;;29.00;27.50;;;;;17.73;51.48;101491.91;6369180;22;45512;-92
2023/06/06 07:07:53;;;;;;;;;31.25;28.50;;;;;17.79;51.11;101487.25;6368585;22;45293;-91
2023/06/06 07:10:21;;;;;;;;;33.00;26.25;;;;;17.99;51.09;101509.84;6368526;22;45607;-92
2023/06/06 07:12:48;;;;;;;;;30.50;25.75;;;;;17.92;51.17;101490.94;6368695;22;47311;-93
2023/06/06 07:15:14;;;;;;;;;30.75;28.00;;;;;18.07;51.02;101502.41;6367772;22;45391;-91
2023/06/06 07:17:46;;;;;;;;;26.50;26.25;;;;;18.09;50.88;101495.28;6368735;22;45306;-92
2023/06/06 07:20:11;;;;;;;;;26.75;26.00;;;;;18.06;50.79;101481.41;6369483;22;45248;-92
2023/06/06 07:22:37;;;;;;;;;26.50;24.50;;;;;18.11;50.60;101485.53;6368559;22;47402;-92
2023/06/06 07:25:04;;;;;;;;;25.25;23.25;;;;;18.33;50.88;101510.63;6368889;22;45198;-92
2023/06/06 07:27:33;;;;;;;;;27.00;24.50;;;;;18.25;50.52;101483.88;6368390;22;45364;-92
2023/06/06 07:30:00;;;;;;;;;29.50;26.75;;;;;18.22;50.48;101477.00;6368568;22;45550;-91
2023/06/06 07:32:26;;;;;;;;;30.25;27.00;;;;;18.40;50.66;101500.59;6369661;22;45319;-92
2023/06/06 07:34:51;;;;;;;;;31.50;28.00;;;;;18.24;50.40;101480.38;6363228;22;45889;-93
2023/06/06 07:37:16;;;;;;;;;27.75;27.00;;;;;18.27;50.09;101474.94;6369160;22;45587;-92
2023/06/06 07:39:43;;;;;;;;;27.25;26.00;;;;;18.36;50.43;101494.66;6369173;22;45547;-94
2023/06/06 07:42:09;;;;;;;;;32.50;29.50;;;;;18.34;50.07;101485.13;6371178;22;46933;-93
2023/06/06 07:44:34;;;;;;;;;28.25;27.00;;;;;18.33;50.03;101476.38;6369882;22;45433;-92
2023/06/06 07:47:00;;;;;;;;;31.00;26.00;;;;;18.45;50.20;101487.16;6371038;22;45395;-93
2023/06/06 07:49:25;;;;;;;;;42.25;33.50;;;;;18.54;50.40;101495.38;6371058;22;45388;-94
2023/06/06 07:51:50;;;;;;;;;35.75;32.50;;;;;18.48;49.97;101481.72;6370822;22;46965;-93
2023/06/06 07:54:19;;;;;;;;;37.50;32.75;;;;;18.51;49.93;101477.09;6370995;22;45281;-94
2023/06/06 07:56:44;;;;;;;;;35.75;29.75;;;;;18.64;50.17;101493.06;6370490;22;44648;-95
2023/06/06 07:59:10;;;;;;;;;30.25;27.75;;;;;18.70;50.58;101489.19;6370111;22;45623;-91
2023/06/06 08:01:37;;;;;;;;;31.50;29.00;;;;;18.82;50.28;101487.63;6369638;22;46814;-93
2023/06/06 08:04:04;;;;;;;;;32.75;29.75;;;;;18.86;50.39;101465.44;6369817;22;45363;-94
2023/06/06 08:06:36;;;;;;;;;30.00;27.00;;;;;19.00;50.33;101477.78;6367725;22;45424;-93
2023/06/06 08:09:06;;;;;;;;;28.25;26.50;;;;;19.05;49.92;101465.22;6370017;22;45385;-93
2023/06/06 08:11:35;;;;;;;;;29.75;27.75;;;;;19.13;49.92;101477.06;6369952;22;47577;-93
2023/06/06 08:14:01;;;;;;;;;29.25;27.00;;;;;19.29;50.20;101479.63;6369480;22;45213;-93
2023/06/06 08:16:27;;;;;;;;;28.75;27.50;;;;;19.41;49.62;101485.94;6368918;22;45204;-94
2023/06/06 08:18:52;;;;;;;;;30.75;26.50;;;;;19.48;49.70;101485.47;6369935;22;45354;-95
2023/06/06 08:21:18;;;;;;;;;24.25;22.25;;;;;19.57;49.84;101486.69;6369388;22;47815;-94
2023/06/06 08:23:43;;;;;;;;;27.25;24.25;;;;;19.54;49.57;101464.91;6369989;22;45384;-93
2023/06/06 08:26:09;;;;;;;;;30.00;27.00;;;;;19.84;49.55;101508.81;6369577;22;45824;-95
2023/06/06 08:28:34;;;;;;;;;29.00;28.25;;;;;19.87;49.25;101500.69;6369351;22;45435;-93
2023/06/06 08:31:02;;;;;;;;;25.75;23.75;;;;;19.86;49.46;101472.59;6369081;22;47159;-93
2023/06/06 08:33:27;;;;;;;;;21.50;21.50;;;;;19.92;48.95;101469.56;6369665;22;45670;-93
2023/06/06 08:35:53;;;;;;;;;22.50;21.50;;;;;20.20;48.87;101496.88;6368481;22;45554;-94
2023/06/06 08:38:18;;;;;;;;;26.75;25.00;;;;;20.18;49.05;101479.41;6368973;22;45281;-92
2023/06/06 08:40:44;;;;;;;;;19.00;15.50;;;;;20.29;48.84;101482.22;6368954;22;47664;-93
2023/06/06 08:43:12;;;;;;;;;26.25;24.25;;;;;20.43;48.51;101498.00;6369555;22;45253;-95
2023/06/06 08:45:45;;;;;;;;;27.25;25.50;;;;;20.53;48.22;101497.38;6369589;22;45595;-93
2023/06/06 08:48:13;;;;;;;;;26.25;24.50;;;;;20.58;47.94;101486.50;6371319;22;45276;-93
2023/06/06 08:50:41;;;;;;;;;28.50;27.25;;;;;20.63;48.14;101490.53;6369211;22;47381;-93
2023/06/06 08:53:07;;;;;;;;;28.50;23.75;;;;;20.65;48.11;101477.22;6365487;22;45731;-93
2023/06/06 08:55:38;;;;;;;;;23.00;19.00;;;;;20.82;47.45;101500.72;6368543;22;45421;-93
2023/06/06 08:58:05;;;;;;;;;22.25;21.00;;;;;20.88;47.78;101488.06;6368068;22;45480;-91
2023/06/06 09:00:30;;;;;;;;;26.75;24.00;;;;;20.91;47.24;101479.91;6368110;22;47952;-93
2023/06/06 09:02:59;;;;;;;;;23.00;23.00;;;;;21.09;47.78;101489.25;6369679;22;45333;-94
2023/06/06 09:05:25;;;;;;;;;24.75;22.50;;;;;21.19;47.15;101489.44;6369239;22;45304;-93
2023/06/06 09:07:53;;;;;;;;;19.25;18.75;;;;;21.27;47.62;101490.72;6370319;22;45218;-93
2023/06/06 09:10:19;;;;;;;;;20.25;19.75;;;;;21.28;47.63;101487.13;6368897;22;47415;-91
2023/06/06 09:12:46;;;;;;;;;21.25;20.50;;;;;21.45;46.93;101492.09;6369133;22;45753;-91
2023/06/06 09:15:13;;;;;;;;;23.00;22.25;;;;;21.56;46.93;101488.66;6368896;22;45377;-95
2023/06/06 09:17:51;;;;;;;;;26.25;24.25;;;;;21.63;46.79;101476.66;6369276;22;45321;-91
2023/06/06 09:20:17;;;;;;;;;21.00;18.00;;;;;21.80;46.55;101484.41;6369178;22;47157;-93
2023/06/06 09:22:45;;;;;;;;;19.75;19.75;;;;;21.80;46.65;101479.09;6369971;22;45334;-93
2023/06/06 09:25:28;;;;;;;;;19.75;19.50;;;;;21.96;46.01;101484.13;6369806;22;44723;-93
2023/06/06 09:28:00;;;;;;;;;26.25;24.50;;;;;22.23;45.80;101501.63;6368619;22;45469;-94
2023/06/06 09:30:28;;;;;;;;;20.75;18.75;;;;;22.18;45.64;101467.50;6369689;22;47512;-93
2023/06/06 09:33:02;;;;;;;;;21.00;18.75;;;;;22.45;45.86;101486.78;6369140;22;45291;-91
2023/06/06 09:35:35;;;;;;;;;20.00;18.75;;;;;22.53;46.06;101477.31;6368692;22;45366;-93
2023/06/06 09:38:19;;;;;;;;;17.75;17.25;;;;;22.64;45.49;101471.19;6369698;22;45249;-93
2023/06/06 09:40:46;;;;;;;;;19.50;19.25;;;;;22.93;45.00;101494.66;6369443;22;47126;-93
2023/06/06 09:43:12;;;;;;;;;22.50;19.25;;;;;23.02;44.61;101482.47;6369156;22;46295;-93
2023/06/06 09:46:04;;;;;;;;;23.75;20.75;;;;;23.22;44.56;101485.38;6368232;22;45461;-93
2023/06/06 09:48:53;;;;;;;;;19.00;17.25;;;;;23.40;44.72;101488.44;6371227;22;45266;-94
2023/06/06 09:51:19;;;;;;;;;21.25;18.75;;;;;23.48;44.66;101485.19;6355288;22;47167;-93
2023/06/06 09:53:50;;;;;;;;;17.00;16.75;;;;;23.68;44.34;101486.22;6367227;22;45556;-92
2023/06/06 09:56:24;;;;;;;;;19.00;17.00;;;;;23.70;44.19;101463.03;6363789;22;45145;-95
2023/06/06 09:58:56;;;;;;;;;19.75;17.25;;;;;23.93;43.70;101472.78;6369241;22;45466;-92
2023/06/06 10:01:32;;;;;;;;;16.75;15.00;;;;;24.12;43.41;101472.97;6366094;22;47069;-93
2023/06/06 10:03:58;;;;;;;;;18.25;18.25;;;;;24.22;43.08;101465.09;6362073;22;45418;-92
2023/06/06 10:06:33;;;;;;;;;18.25;17.00;;;;;24.36;43.22;101463.09;6365038;22;45247;-93
2023/06/06 10:09:07;;;;;;;;;18.25;16.50;;;;;24.59;42.43;101465.63;6364731;22;45352;-94
2023/06/06 10:11:36;;;;;;;;;18.50;16.50;;;;;24.64;42.49;101458.09;6363289;22;47448;-93
2023/06/06 10:14:03;;;;;;;;;16.75;16.25;;;;;24.83;42.43;101468.03;6364118;22;45524;-93
2023/06/06 10:16:29;;;;;;;;;21.00;18.25;;;;;25.04;42.03;101473.31;6363020;22;45324;-93
2023/06/06 10:18:56;;;;;;;;;18.50;15.25;;;;;25.07;41.75;101457.09;6364374;22;45286;-93
2023/06/06 10:21:24;;;;;;;;;16.00;14.50;;;;;25.30;41.60;101464.91;6363978;22;48556;-93
2023/06/06 10:23:50;;;;;;;;;16.50;16.50;;;;;25.32;41.23;101441.63;6363607;22;45423;-93
2023/06/06 10:26:36;;;;;;;;;17.00;16.75;;;;;25.65;41.14;101470.78;6364688;22;45289;-95
2023/06/06 10:29:07;;;;;;;;;18.00;18.00;;;;;25.84;41.00;101467.31;6363854;22;45619;-95
2023/06/06 10:31:56;;;;;;;;;19.00;16.75;;;;;25.90;40.57;101449.91;6365099;22;46929;-94
2023/06/06 10:34:28;;;;;;;;;16.75;16.75;;;;;26.06;39.93;101445.84;6363792;22;45663;-93
2023/06/06 10:36:56;;;;;;;;;16.33;16.00;;;;;26.09;40.04;101433.06;6364667;22;45383;-92
2023/06/06 10:39:23;;;;;;;;;19.00;18.00;;;;;26.33;39.91;101447.00;6364686;22;45241;-93
2023/06/06 10:41:53;;;;;;;;;15.75;15.50;;;;;26.53;39.41;101450.47;6365213;22;46772;-93
2023/06/06 10:44:32;;;;;;;;;16.00;15.50;;;;;26.67;38.81;101443.84;6365093;22;45203;-95
2023/06/06 10:47:19;;;;;;;;;16.75;14.75;;;;;26.89;38.60;101457.81;6368083;22;45368;-94
2023/06/06 10:50:13;;;;;;;;;16.25;16.00;;;;;27.05;38.47;101460.75;6367824;22;45743;-95
2023/06/06 10:52:51;;;;;;;;;15.25;14.50;;;;;27.21;37.98;101448.56;6368031;22;47270;-94
2023/06/06 10:55:20;;;;;;;;;15.00;14.50;;;;;27.18;38.79;101427.50;6369035;22;45343;-95
2023/06/06 10:58:04;;;;;;;;;11.50;11.50;;;;;27.33;38.34;101431.38;6369006;22;45497;-93
2023/06/06 11:00:43;;;;;;;;;15.50;14.00;;;;;27.63;38.23;101446.41;6395750;22;45527;-95
2023/06/06 11:03:13;;;;;;;;;15.33;15.00;;;;;27.80;38.01;101447.41;6369367;22;47934;-94
2023/06/06 11:06:03;;;;;;;;;16.25;13.75;;;;;27.97;37.32;101440.38;6368951;22;45170;-94
2023/06/06 11:08:38;;;;;;;;;13.75;13.75;;;;;28.13;36.55;101440.53;6368473;22;45339;-94
2023/06/06 11:11:20;;;;;;;;;15.25;13.75;;;;;28.23;36.92;101431.59;6368605;22;45496;-95
2023/06/06 11:13:59;;;;;;;;;16.25;16.25;;;;;28.24;36.16;101407.34;6369578;22;47308;-95
2023/06/06 11:16:35;;;;;;;;;15.00;13.00;;;;;28.53;35.73;101430.31;6370459;22;45327;-95
2023/06/06 11:19:02;;;;;;;;;15.25;14.00;;;;;28.59;35.95;101425.34;6370236;22;45350;-92
2023/06/06 11:21:31;;;;;;;;;12.50;11.00;;;;;28.66;35.68;101421.00;6370442;22;45320;-95
2023/06/06 11:23:58;;;;;;;;;15.75;15.25;;;;;28.72;35.14;101411.50;6370420;22;47102;-94
2023/06/06 11:26:28;;;;;;;;;15.25;13.50;;;;;28.90;35.43;101417.66;6370136;22;45394;-95
2023/06/06 11:28:55;;;;;;;;;16.33;13.67;;;;;28.90;34.84;101403.41;6370329;22;45190;-96
2023/06/06 11:31:23;;;;;;;;;13.67;12.33;;;;;29.14;34.75;101415.22;6371185;22;45509;-94
2023/06/06 11:33:49;;;;;;;;;18.50;17.25;;;;;29.01;35.22;101394.28;6397808;22;47004;-93
2023/06/06 11:36:15;;;;;;;;;14.25;14.25;;;;;29.14;34.95;101400.00;6370847;22;44732;-95
2023/06/06 11:38:43;;;;;;;;;10.50;10.25;;;;;29.30;35.24;101419.81;6370128;22;45279;-96
2023/06/06 11:41:09;;;;;;;;;15.25;13.75;;;;;29.28;34.52;101393.16;6397639;22;45154;-95
2023/06/06 11:43:35;;;;;;;;;13.50;13.25;;;;;29.41;34.76;101397.22;6369791;22;47083;-93
2023/06/06 11:46:05;;;;;;;;;13.75;13.50;;;;;29.56;34.45;101400.97;6370578;22;45286;-93
2023/06/06 11:48:31;;;;;;;;;14.00;13.25;;;;;29.68;34.06;101409.53;6370649;22;45167;-94
2023/06/06 11:56:14;;;;;;;;;17.00;15.00;;;;;30.00;34.05;101388.25;6397316;22;45247;-96
2023/06/06 11:58:41;;;;;;;;;12.33;12.00;;;;;30.13;33.61;101393.94;6428680;22;45466;-96
2023/06/06 12:01:08;;;;;;;;;15.00;13.00;;;;;30.16;32.76;101395.47;6428216;22;45355;-93
2023/06/06 12:03:34;;;;;;;;;10.33;10.33;;;;;30.23;33.17;101395.63;6428684;22;47188;-96
2023/06/06 12:06:01;;;;;;;;;13.33;12.33;;;;;30.34;32.67;101389.91;6427453;22;45233;-95
2023/06/06 12:08:26;;;;;;;;;10.25;10.25;;;;;30.45;32.71;101402.13;6429474;22;45258;-94
2023/06/06 12:10:52;;;;;;;;;11.00;9.33;;;;;30.54;33.05;101390.34;6401096;22;44807;-94
2023/06/06 12:13:31;;;;;;;;;15.33;14.67;;;;;30.59;32.54;101391.69;6428857;22;47401;-95
2023/06/06 12:15:57;;;;;;;;;12.67;12.33;;;;;30.49;32.12;101371.22;6430305;22;44826;-96
2023/06/06 12:18:25;;;;;;;;;14.00;12.67;;;;;30.62;32.71;101385.97;6429345;22;45279;-95
2023/06/06 12:20:51;;;;;;;;;15.00;14.00;;;;;30.64;32.86;101378.59;6430462;22;44812;-95
2023/06/06 12:23:30;;;;;;;;;12.00;9.67;;;;;30.85;32.25;101395.97;6427456;22;46936;-95
2023/06/06 12:26:00;;;;;;;;;12.00;12.00;;;;;30.85;31.82;101380.72;6428084;22;45464;-95
2023/06/06 12:28:26;;;;;;;;;12.67;12.33;;;;;30.87;31.75;101373.31;6403552;22;44695;-94
2023/06/06 12:30:52;;;;;;;;;12.00;9.33;;;;;30.89;31.01;101375.81;6427924;22;45271;-94
2023/06/06 12:33:19;;;;;;;;;11.00;11.00;;;;;30.84;31.50;101370.13;6428338;22;47428;-95
2023/06/06 12:35:45;;;;;;;;;9.00;8.33;;;;;30.98;32.03;101373.94;6428385;22;45402;-94
2023/06/06 12:38:23;;;;;;;;;13.00;12.00;;;;;31.10;31.34;101388.63;6427983;22;45362;-94
2023/06/06 12:40:55;;;;;;;;;14.00;12.67;;;;;31.22;30.69;101391.78;6401417;22;45293;-92
2023/06/06 12:43:21;;;;;;;;;10.33;10.33;;;;;31.21;31.31;101387.41;6426547;22;47791;-94
2023/06/06 12:45:46;;;;;;;;;11.33;11.00;;;;;31.20;30.87;101364.25;6427957;22;44742;-96